sensor_id;sensor_type;location;lat;lon;timestamp;P1;durP1;ratioP1;P2;durP2;ratioP2
49962;SDS011;36180;57.678;11.910;2023-03-23T00:02:22;68.50;;;9.50;;
49962;SDS011;36180;57.678;11.910;2023-03-23T00:04:50;58.20;;;8.30;;
49962;SDS011;36180;57.678;11.910;2023-03-23T00:07:18;68.53;;;9.48;;
49962;SDS011;36180;57.678;11.910;2023-03-23T00:09:47;57.72;;;8.57;;
49962;SDS011;36180;57.678;11.910;2023-03-23T00:12:18;65.28;;;8.13;;
49962;SDS011;36180;57.678;11.910;2023-03-23T00:14:48;58.95;;;9.02;;
49962;SDS011;36180;57.678;11.910;2023-03-23T00:17:19;72.80;;;8.75;;
49962;SDS011;36180;57.678;11.910;2023-03-23T00:19:46;62.40;;;8.70;;
49962;SDS011;36180;57.678;11.910;2023-03-23T00:22:13;74.78;;;9.02;;
49962;SDS011;36180;57.678;11.910;2023-03-23T00:24:42;68.40;;;9.20;;
49962;SDS011;36180;57.678;11.910;2023-03-23T00:27:10;67.10;;;9.60;;
49962;SDS011;36180;57.678;11.910;2023-03-23T00:29:41;64.95;;;8.68;;
49962;SDS011;36180;57.678;11.910;2023-03-23T00:32:12;54.03;;;8.32;;
49962;SDS011;36180;57.678;11.910;2023-03-23T00:34:41;69.53;;;9.57;;
49962;SDS011;36180;57.678;11.910;2023-03-23T00:37:11;68.45;;;8.65;;
49962;SDS011;36180;57.678;11.910;2023-03-23T00:39:38;59.10;;;9.63;;
49962;SDS011;36180;57.678;11.910;2023-03-23T00:42:11;56.88;;;8.85;;
49962;SDS011;36180;57.678;11.910;2023-03-23T00:44:39;71.70;;;10.10;;
49962;SDS011;36180;57.678;11.910;2023-03-23T00:47:06;72.25;;;8.82;;
49962;SDS011;36180;57.678;11.910;2023-03-23T00:49:38;58.15;;;10.45;;
49962;SDS011;36180;57.678;11.910;2023-03-23T00:52:06;51.35;;;9.95;;
49962;SDS011;36180;57.678;11.910;2023-03-23T00:54:33;67.15;;;10.77;;
49962;SDS011;36180;57.678;11.910;2023-03-23T00:57:03;57.85;;;9.48;;
49962;SDS011;36180;57.678;11.910;2023-03-23T00:59:31;61.10;;;10.75;;
49962;SDS011;36180;57.678;11.910;2023-03-23T01:01:58;73.00;;;10.95;;
49962;SDS011;36180;57.678;11.910;2023-03-23T01:04:25;70.57;;;10.57;;
49962;SDS011;36180;57.678;11.910;2023-03-23T01:06:55;77.00;;;11.13;;
49962;SDS011;36180;57.678;11.910;2023-03-23T01:09:22;76.88;;;10.30;;
49962;SDS011;36180;57.678;11.910;2023-03-23T01:11:49;65.13;;;11.48;;
49962;SDS011;36180;57.678;11.910;2023-03-23T01:14:18;72.07;;;11.63;;
49962;SDS011;36180;57.678;11.910;2023-03-23T01:16:48;78.60;;;12.60;;
49962;SDS011;36180;57.678;11.910;2023-03-23T01:19:16;62.03;;;11.77;;
49962;SDS011;36180;57.678;11.910;2023-03-23T01:21:43;73.95;;;12.50;;
49962;SDS011;36180;57.678;11.910;2023-03-23T01:24:11;85.70;;;11.90;;
49962;SDS011;36180;57.678;11.910;2023-03-23T01:26:38;55.55;;;10.82;;
49962;SDS011;36180;57.678;11.910;2023-03-23T01:29:05;60.83;;;10.85;;
49962;SDS011;36180;57.678;11.910;2023-03-23T01:31:33;74.03;;;11.73;;
49962;SDS011;36180;57.678;11.910;2023-03-23T01:34:03;75.78;;;11.50;;
49962;SDS011;36180;57.678;11.910;2023-03-23T01:36:31;76.80;;;12.00;;
49962;SDS011;36180;57.678;11.910;2023-03-23T01:39:00;67.82;;;11.82;;
49962;SDS011;36180;57.678;11.910;2023-03-23T01:41:32;82.47;;;11.57;;
49962;SDS011;36180;57.678;11.910;2023-03-23T01:44:05;62.20;;;10.30;;
49962;SDS011;36180;57.678;11.910;2023-03-23T01:46:44;66.93;;;10.70;;
49962;SDS011;36180;57.678;11.910;2023-03-23T01:49:12;58.28;;;9.73;;
49962;SDS011;36180;57.678;11.910;2023-03-23T01:51:45;68.22;;;10.13;;
49962;SDS011;36180;57.678;11.910;2023-03-23T01:54:15;64.35;;;10.27;;
49962;SDS011;36180;57.678;11.910;2023-03-23T01:56:48;69.25;;;10.48;;
49962;SDS011;36180;57.678;11.910;2023-03-23T01:59:19;73.40;;;10.70;;
49962;SDS011;36180;57.678;11.910;2023-03-23T02:01:53;66.28;;;9.73;;
49962;SDS011;36180;57.678;11.910;2023-03-23T02:04:20;62.47;;;10.23;;
49962;SDS011;36180;57.678;11.910;2023-03-23T02:06:50;57.40;;;9.70;;
49962;SDS011;36180;57.678;11.910;2023-03-23T02:09:20;66.82;;;10.45;;
49962;SDS011;36180;57.678;11.910;2023-03-23T02:11:49;56.30;;;8.95;;
49962;SDS011;36180;57.678;11.910;2023-03-23T02:14:17;49.38;;;8.55;;
49962;SDS011;36180;57.678;11.910;2023-03-23T02:16:47;68.28;;;9.52;;
49962;SDS011;36180;57.678;11.910;2023-03-23T02:19:27;65.55;;;9.50;;
49962;SDS011;36180;57.678;11.910;2023-03-23T02:22:10;67.05;;;9.80;;
49962;SDS011;36180;57.678;11.910;2023-03-23T02:24:53;62.85;;;10.07;;
49962;SDS011;36180;57.678;11.910;2023-03-23T02:27:31;64.78;;;9.68;;
49962;SDS011;36180;57.678;11.910;2023-03-23T02:30:12;61.28;;;9.43;;
49962;SDS011;36180;57.678;11.910;2023-03-23T02:32:55;61.15;;;10.00;;
49962;SDS011;36180;57.678;11.910;2023-03-23T02:35:37;57.67;;;10.48;;
49962;SDS011;36180;57.678;11.910;2023-03-23T02:38:06;61.33;;;9.88;;
49962;SDS011;36180;57.678;11.910;2023-03-23T02:40:38;49.33;;;9.43;;
49962;SDS011;36180;57.678;11.910;2023-03-23T02:43:06;55.50;;;10.50;;
49962;SDS011;36180;57.678;11.910;2023-03-23T02:45:36;51.25;;;10.10;;
49962;SDS011;36180;57.678;11.910;2023-03-23T02:48:04;60.50;;;9.98;;
49962;SDS011;36180;57.678;11.910;2023-03-23T02:50:33;51.13;;;9.73;;
49962;SDS011;36180;57.678;11.910;2023-03-23T02:53:03;62.05;;;9.55;;
49962;SDS011;36180;57.678;11.910;2023-03-23T02:55:31;55.88;;;10.20;;
49962;SDS011;36180;57.678;11.910;2023-03-23T02:58:02;53.63;;;10.73;;
49962;SDS011;36180;57.678;11.910;2023-03-23T03:00:30;58.72;;;10.82;;
49962;SDS011;36180;57.678;11.910;2023-03-23T03:02:58;46.53;;;10.02;;
49962;SDS011;36180;57.678;11.910;2023-03-23T03:05:32;67.65;;;10.98;;
49962;SDS011;36180;57.678;11.910;2023-03-23T03:08:11;61.83;;;11.02;;
49962;SDS011;36180;57.678;11.910;2023-03-23T03:10:46;62.42;;;10.15;;
49962;SDS011;36180;57.678;11.910;2023-03-23T03:13:21;59.13;;;11.27;;
49962;SDS011;36180;57.678;11.910;2023-03-23T03:15:54;57.22;;;9.48;;
49962;SDS011;36180;57.678;11.910;2023-03-23T03:18:24;44.05;;;10.25;;
49962;SDS011;36180;57.678;11.910;2023-03-23T03:20:57;48.10;;;10.02;;
49962;SDS011;36180;57.678;11.910;2023-03-23T03:23:27;47.60;;;10.15;;
49962;SDS011;36180;57.678;11.910;2023-03-23T03:25:58;56.83;;;10.00;;
49962;SDS011;36180;57.678;11.910;2023-03-23T03:28:38;53.60;;;10.45;;
49962;SDS011;36180;57.678;11.910;2023-03-23T03:31:06;61.45;;;10.75;;
49962;SDS011;36180;57.678;11.910;2023-03-23T03:33:34;57.80;;;11.40;;
49962;SDS011;36180;57.678;11.910;2023-03-23T03:36:03;57.30;;;12.15;;
49962;SDS011;36180;57.678;11.910;2023-03-23T03:38:40;65.25;;;11.65;;
49962;SDS011;36180;57.678;11.910;2023-03-23T03:41:08;51.10;;;10.68;;
49962;SDS011;36180;57.678;11.910;2023-03-23T03:43:35;55.65;;;11.85;;
49962;SDS011;36180;57.678;11.910;2023-03-23T03:46:03;53.63;;;11.48;;
49962;SDS011;36180;57.678;11.910;2023-03-23T03:48:31;49.08;;;10.88;;
49962;SDS011;36180;57.678;11.910;2023-03-23T03:50:59;38.90;;;10.52;;
49962;SDS011;36180;57.678;11.910;2023-03-23T03:53:30;55.42;;;12.25;;
49962;SDS011;36180;57.678;11.910;2023-03-23T03:55:58;51.38;;;10.70;;
49962;SDS011;36180;57.678;11.910;2023-03-23T03:58:32;44.10;;;10.55;;
49962;SDS011;36180;57.678;11.910;2023-03-23T04:01:39;50.63;;;11.20;;
49962;SDS011;36180;57.678;11.910;2023-03-23T04:04:07;44.80;;;10.82;;
49962;SDS011;36180;57.678;11.910;2023-03-23T04:06:36;47.15;;;11.98;;
49962;SDS011;36180;57.678;11.910;2023-03-23T04:09:05;38.83;;;11.75;;
49962;SDS011;36180;57.678;11.910;2023-03-23T04:11:34;40.17;;;10.32;;
49962;SDS011;36180;57.678;11.910;2023-03-23T04:14:19;33.67;;;11.57;;
49962;SDS011;36180;57.678;11.910;2023-03-23T04:16:47;32.03;;;10.10;;
49962;SDS011;36180;57.678;11.910;2023-03-23T04:19:21;31.40;;;10.70;;
49962;SDS011;36180;57.678;11.910;2023-03-23T04:21:49;31.30;;;10.13;;
49962;SDS011;36180;57.678;11.910;2023-03-23T04:24:19;28.20;;;10.77;;
49962;SDS011;36180;57.678;11.910;2023-03-23T04:26:49;38.78;;;11.30;;
49962;SDS011;36180;57.678;11.910;2023-03-23T04:29:23;36.90;;;12.68;;
49962;SDS011;36180;57.678;11.910;2023-03-23T04:32:26;29.75;;;9.75;;
49962;SDS011;36180;57.678;11.910;2023-03-23T04:34:56;28.55;;;10.18;;
49962;SDS011;36180;57.678;11.910;2023-03-23T04:37:29;27.05;;;8.93;;
49962;SDS011;36180;57.678;11.910;2023-03-23T04:40:02;30.58;;;9.23;;
49962;SDS011;36180;57.678;11.910;2023-03-23T04:42:35;22.88;;;9.18;;
49962;SDS011;36180;57.678;11.910;2023-03-23T04:45:26;21.42;;;8.40;;
49962;SDS011;36180;57.678;11.910;2023-03-23T04:47:55;27.85;;;8.98;;
49962;SDS011;36180;57.678;11.910;2023-03-23T04:50:33;23.88;;;8.98;;
49962;SDS011;36180;57.678;11.910;2023-03-23T04:53:11;28.23;;;9.43;;
49962;SDS011;36180;57.678;11.910;2023-03-23T04:55:42;26.85;;;9.07;;
49962;SDS011;36180;57.678;11.910;2023-03-23T04:58:12;29.77;;;10.07;;
49962;SDS011;36180;57.678;11.910;2023-03-23T05:00:57;30.10;;;10.07;;
49962;SDS011;36180;57.678;11.910;2023-03-23T05:03:25;35.55;;;10.40;;
49962;SDS011;36180;57.678;11.910;2023-03-23T05:05:54;33.85;;;9.98;;
49962;SDS011;36180;57.678;11.910;2023-03-23T05:08:22;28.48;;;10.93;;
49962;SDS011;36180;57.678;11.910;2023-03-23T05:10:53;27.42;;;10.63;;
49962;SDS011;36180;57.678;11.910;2023-03-23T05:15:53;28.00;;;10.85;;
49962;SDS011;36180;57.678;11.910;2023-03-23T05:18:21;27.73;;;10.45;;
49962;SDS011;36180;57.678;11.910;2023-03-23T05:20:48;27.70;;;10.38;;
49962;SDS011;36180;57.678;11.910;2023-03-23T05:23:20;35.97;;;12.10;;
49962;SDS011;36180;57.678;11.910;2023-03-23T05:25:56;31.63;;;10.63;;
49962;SDS011;36180;57.678;11.910;2023-03-23T05:28:28;29.77;;;10.65;;
49962;SDS011;36180;57.678;11.910;2023-03-23T05:31:07;28.00;;;10.77;;
49962;SDS011;36180;57.678;11.910;2023-03-23T05:33:35;29.25;;;11.18;;
49962;SDS011;36180;57.678;11.910;2023-03-23T05:36:08;22.65;;;10.95;;
49962;SDS011;36180;57.678;11.910;2023-03-23T05:38:58;31.55;;;10.77;;
49962;SDS011;36180;57.678;11.910;2023-03-23T05:41:43;32.95;;;11.35;;
49962;SDS011;36180;57.678;11.910;2023-03-23T05:44:13;34.97;;;12.60;;
49962;SDS011;36180;57.678;11.910;2023-03-23T05:46:52;37.92;;;11.90;;
49962;SDS011;36180;57.678;11.910;2023-03-23T05:49:19;32.25;;;12.15;;
49962;SDS011;36180;57.678;11.910;2023-03-23T05:51:47;35.65;;;12.00;;
49962;SDS011;36180;57.678;11.910;2023-03-23T05:54:16;35.78;;;12.60;;
49962;SDS011;36180;57.678;11.910;2023-03-23T05:56:47;38.83;;;12.68;;
49962;SDS011;36180;57.678;11.910;2023-03-23T05:59:33;28.45;;;12.32;;
49962;SDS011;36180;57.678;11.910;2023-03-23T06:02:02;26.25;;;11.52;;
49962;SDS011;36180;57.678;11.910;2023-03-23T06:04:29;28.17;;;11.27;;
49962;SDS011;36180;57.678;11.910;2023-03-23T06:07:20;28.98;;;12.60;;
49962;SDS011;36180;57.678;11.910;2023-03-23T06:10:00;30.65;;;11.13;;
49962;SDS011;36180;57.678;11.910;2023-03-23T06:12:39;31.95;;;11.95;;
49962;SDS011;36180;57.678;11.910;2023-03-23T06:15:25;26.60;;;11.32;;
49962;SDS011;36180;57.678;11.910;2023-03-23T06:18:15;28.27;;;11.68;;
49962;SDS011;36180;57.678;11.910;2023-03-23T06:20:59;34.15;;;12.38;;
49962;SDS011;36180;57.678;11.910;2023-03-23T06:23:49;34.97;;;11.32;;
49962;SDS011;36180;57.678;11.910;2023-03-23T06:26:18;27.42;;;11.07;;
49962;SDS011;36180;57.678;11.910;2023-03-23T06:28:52;33.38;;;11.88;;
49962;SDS011;36180;57.678;11.910;2023-03-23T06:31:20;35.88;;;13.25;;
49962;SDS011;36180;57.678;11.910;2023-03-23T06:33:48;30.10;;;13.25;;
49962;SDS011;36180;57.678;11.910;2023-03-23T06:36:25;33.38;;;13.48;;
49962;SDS011;36180;57.678;11.910;2023-03-23T06:39:06;38.65;;;14.15;;
49962;SDS011;36180;57.678;11.910;2023-03-23T06:41:56;33.15;;;13.68;;
49962;SDS011;36180;57.678;11.910;2023-03-23T06:44:25;35.88;;;14.45;;
49962;SDS011;36180;57.678;11.910;2023-03-23T06:46:53;39.78;;;14.75;;
49962;SDS011;36180;57.678;11.910;2023-03-23T06:49:26;38.13;;;15.13;;
49962;SDS011;36180;57.678;11.910;2023-03-23T06:54:36;40.00;;;15.00;;
49962;SDS011;36180;57.678;11.910;2023-03-23T06:57:05;43.35;;;15.85;;
49962;SDS011;36180;57.678;11.910;2023-03-23T06:59:33;50.17;;;16.98;;
49962;SDS011;36180;57.678;11.910;2023-03-23T07:02:01;42.72;;;16.48;;
49962;SDS011;36180;57.678;11.910;2023-03-23T07:04:30;52.75;;;16.83;;
49962;SDS011;36180;57.678;11.910;2023-03-23T07:07:11;53.70;;;18.13;;
49962;SDS011;36180;57.678;11.910;2023-03-23T07:09:48;52.20;;;17.42;;
49962;SDS011;36180;57.678;11.910;2023-03-23T07:12:20;45.75;;;17.02;;
49962;SDS011;36180;57.678;11.910;2023-03-23T07:14:51;50.17;;;17.05;;
49962;SDS011;36180;57.678;11.910;2023-03-23T07:17:18;46.17;;;17.70;;
49962;SDS011;36180;57.678;11.910;2023-03-23T07:20:08;69.57;;;18.45;;
49962;SDS011;36180;57.678;11.910;2023-03-23T07:22:36;58.58;;;17.75;;
49962;SDS011;36180;57.678;11.910;2023-03-23T07:25:13;54.67;;;18.63;;
49962;SDS011;36180;57.678;11.910;2023-03-23T07:27:47;57.78;;;17.92;;
49962;SDS011;36180;57.678;11.910;2023-03-23T07:30:17;53.75;;;17.58;;
49962;SDS011;36180;57.678;11.910;2023-03-23T07:32:45;50.95;;;17.08;;
49962;SDS011;36180;57.678;11.910;2023-03-23T07:35:12;56.10;;;17.67;;
49962;SDS011;36180;57.678;11.910;2023-03-23T07:37:57;56.53;;;15.90;;
49962;SDS011;36180;57.678;11.910;2023-03-23T07:40:25;54.40;;;15.98;;
49962;SDS011;36180;57.678;11.910;2023-03-23T07:42:58;49.60;;;15.80;;
49962;SDS011;36180;57.678;11.910;2023-03-23T07:45:47;43.13;;;14.85;;
49962;SDS011;36180;57.678;11.910;2023-03-23T07:48:17;33.30;;;14.32;;
49962;SDS011;36180;57.678;11.910;2023-03-23T07:50:45;33.70;;;13.90;;
49962;SDS011;36180;57.678;11.910;2023-03-23T07:53:13;37.80;;;13.35;;
49962;SDS011;36180;57.678;11.910;2023-03-23T07:55:44;35.90;;;14.18;;
49962;SDS011;36180;57.678;11.910;2023-03-23T07:58:29;37.50;;;14.63;;
49962;SDS011;36180;57.678;11.910;2023-03-23T08:00:58;34.28;;;13.57;;
49962;SDS011;36180;57.678;11.910;2023-03-23T08:03:29;29.05;;;13.32;;
49962;SDS011;36180;57.678;11.910;2023-03-23T08:06:15;26.75;;;13.07;;
49962;SDS011;36180;57.678;11.910;2023-03-23T08:09:02;31.15;;;14.32;;
49962;SDS011;36180;57.678;11.910;2023-03-23T08:11:50;30.05;;;14.07;;
49962;SDS011;36180;57.678;11.910;2023-03-23T08:14:36;29.25;;;13.25;;
49962;SDS011;36180;57.678;11.910;2023-03-23T08:17:26;27.35;;;13.80;;
49962;SDS011;36180;57.678;11.910;2023-03-23T08:20:13;26.30;;;12.75;;
49962;SDS011;36180;57.678;11.910;2023-03-23T08:23:00;30.15;;;12.77;;
49962;SDS011;36180;57.678;11.910;2023-03-23T08:25:46;23.42;;;12.18;;
49962;SDS011;36180;57.678;11.910;2023-03-23T08:28:28;18.15;;;9.82;;
49962;SDS011;36180;57.678;11.910;2023-03-23T08:30:55;18.90;;;9.93;;
49962;SDS011;36180;57.678;11.910;2023-03-23T08:33:42;22.92;;;10.32;;
49962;SDS011;36180;57.678;11.910;2023-03-23T08:36:33;22.95;;;10.00;;
49962;SDS011;36180;57.678;11.910;2023-03-23T08:39:12;27.98;;;11.45;;
49962;SDS011;36180;57.678;11.910;2023-03-23T08:41:58;21.80;;;8.80;;
49962;SDS011;36180;57.678;11.910;2023-03-23T08:44:51;21.48;;;10.02;;
49962;SDS011;36180;57.678;11.910;2023-03-23T08:47:38;22.20;;;10.25;;
49962;SDS011;36180;57.678;11.910;2023-03-23T08:50:27;22.20;;;10.35;;
49962;SDS011;36180;57.678;11.910;2023-03-23T08:53:14;19.63;;;9.32;;
49962;SDS011;36180;57.678;11.910;2023-03-23T08:55:42;20.83;;;9.73;;
49962;SDS011;36180;57.678;11.910;2023-03-23T09:00:54;19.20;;;9.45;;
49962;SDS011;36180;57.678;11.910;2023-03-23T09:03:47;20.90;;;9.88;;
49962;SDS011;36180;57.678;11.910;2023-03-23T09:06:23;19.00;;;10.15;;
49962;SDS011;36180;57.678;11.910;2023-03-23T09:08:50;20.83;;;10.75;;
49962;SDS011;36180;57.678;11.910;2023-03-23T09:11:17;20.20;;;10.40;;
49962;SDS011;36180;57.678;11.910;2023-03-23T09:13:44;18.33;;;9.63;;
49962;SDS011;36180;57.678;11.910;2023-03-23T09:16:12;16.88;;;9.35;;
49962;SDS011;36180;57.678;11.910;2023-03-23T09:18:39;19.67;;;9.57;;
49962;SDS011;36180;57.678;11.910;2023-03-23T09:21:06;15.52;;;10.13;;
49962;SDS011;36180;57.678;11.910;2023-03-23T09:23:35;16.88;;;10.90;;
49962;SDS011;36180;57.678;11.910;2023-03-23T09:26:02;17.85;;;10.05;;
49962;SDS011;36180;57.678;11.910;2023-03-23T09:28:30;20.90;;;11.15;;
49962;SDS011;36180;57.678;11.910;2023-03-23T09:30:57;18.83;;;10.23;;
49962;SDS011;36180;57.678;11.910;2023-03-23T09:33:24;19.00;;;10.48;;
49962;SDS011;36180;57.678;11.910;2023-03-23T09:35:54;21.10;;;11.70;;
49962;SDS011;36180;57.678;11.910;2023-03-23T09:38:21;22.30;;;12.93;;
49962;SDS011;36180;57.678;11.910;2023-03-23T09:40:50;31.00;;;15.82;;
49962;SDS011;36180;57.678;11.910;2023-03-23T09:43:36;27.98;;;14.18;;
49962;SDS011;36180;57.678;11.910;2023-03-23T09:46:21;28.02;;;15.05;;
49962;SDS011;36180;57.678;11.910;2023-03-23T09:48:58;33.30;;;17.25;;
49962;SDS011;36180;57.678;11.910;2023-03-23T09:51:32;32.47;;;16.70;;
49962;SDS011;36180;57.678;11.910;2023-03-23T09:54:09;33.85;;;18.88;;
49962;SDS011;36180;57.678;11.910;2023-03-23T09:56:42;40.00;;;19.58;;
49962;SDS011;36180;57.678;11.910;2023-03-23T09:59:12;40.47;;;20.08;;
49962;SDS011;36180;57.678;11.910;2023-03-23T10:01:44;50.95;;;22.42;;
49962;SDS011;36180;57.678;11.910;2023-03-23T10:04:13;39.78;;;20.48;;
49962;SDS011;36180;57.678;11.910;2023-03-23T10:06:46;44.25;;;20.70;;
49962;SDS011;36180;57.678;11.910;2023-03-23T10:09:14;44.90;;;20.30;;
49962;SDS011;36180;57.678;11.910;2023-03-23T10:11:47;42.55;;;20.42;;
49962;SDS011;36180;57.678;11.910;2023-03-23T10:14:23;46.20;;;19.33;;
49962;SDS011;36180;57.678;11.910;2023-03-23T10:17:00;46.30;;;20.02;;
49962;SDS011;36180;57.678;11.910;2023-03-23T10:19:37;43.78;;;19.02;;
49962;SDS011;36180;57.678;11.910;2023-03-23T10:22:09;42.30;;;18.92;;
49962;SDS011;36180;57.678;11.910;2023-03-23T10:24:39;37.10;;;17.60;;
49962;SDS011;36180;57.678;11.910;2023-03-23T10:27:16;39.20;;;18.88;;
49962;SDS011;36180;57.678;11.910;2023-03-23T10:29:48;41.78;;;16.75;;
49962;SDS011;36180;57.678;11.910;2023-03-23T10:32:18;36.97;;;15.18;;
49962;SDS011;36180;57.678;11.910;2023-03-23T10:34:49;35.38;;;14.38;;
49962;SDS011;36180;57.678;11.910;2023-03-23T10:37:18;29.95;;;13.68;;
49962;SDS011;36180;57.678;11.910;2023-03-23T10:39:48;31.00;;;14.00;;
49962;SDS011;36180;57.678;11.910;2023-03-23T10:42:27;23.90;;;10.55;;
49962;SDS011;36180;57.678;11.910;2023-03-23T10:44:56;23.45;;;10.13;;
49962;SDS011;36180;57.678;11.910;2023-03-23T10:47:27;24.35;;;9.75;;
49962;SDS011;36180;57.678;11.910;2023-03-23T10:49:55;22.35;;;9.05;;
49962;SDS011;36180;57.678;11.910;2023-03-23T10:52:26;21.00;;;9.15;;
49962;SDS011;36180;57.678;11.910;2023-03-23T10:55:00;25.60;;;9.57;;
49962;SDS011;36180;57.678;11.910;2023-03-23T10:57:31;29.20;;;8.98;;
49962;SDS011;36180;57.678;11.910;2023-03-23T11:00:00;23.38;;;9.15;;
49962;SDS011;36180;57.678;11.910;2023-03-23T11:02:37;24.58;;;7.85;;
49962;SDS011;36180;57.678;11.910;2023-03-23T11:05:07;24.98;;;8.18;;
49962;SDS011;36180;57.678;11.910;2023-03-23T11:07:49;17.83;;;6.80;;
49962;SDS011;36180;57.678;11.910;2023-03-23T11:10:20;18.55;;;6.97;;
49962;SDS011;36180;57.678;11.910;2023-03-23T11:12:51;22.20;;;6.85;;
49962;SDS011;36180;57.678;11.910;2023-03-23T11:15:24;23.23;;;6.80;;
49962;SDS011;36180;57.678;11.910;2023-03-23T11:17:55;17.83;;;6.20;;
49962;SDS011;36180;57.678;11.910;2023-03-23T11:20:23;25.02;;;6.53;;
49962;SDS011;36180;57.678;11.910;2023-03-23T11:22:51;19.40;;;6.15;;
49962;SDS011;36180;57.678;11.910;2023-03-23T11:25:19;19.92;;;5.93;;
49962;SDS011;36180;57.678;11.910;2023-03-23T11:27:46;19.95;;;6.28;;
49962;SDS011;36180;57.678;11.910;2023-03-23T11:30:19;17.77;;;5.25;;
49962;SDS011;36180;57.678;11.910;2023-03-23T11:32:49;16.88;;;5.28;;
49962;SDS011;36180;57.678;11.910;2023-03-23T11:35:19;16.42;;;4.18;;
49962;SDS011;36180;57.678;11.910;2023-03-23T11:37:47;16.42;;;4.75;;
49962;SDS011;36180;57.678;11.910;2023-03-23T11:40:17;19.38;;;4.68;;
49962;SDS011;36180;57.678;11.910;2023-03-23T11:42:45;15.13;;;4.97;;
49962;SDS011;36180;57.678;11.910;2023-03-23T11:45:17;17.05;;;5.07;;
49962;SDS011;36180;57.678;11.910;2023-03-23T11:50:22;16.05;;;4.43;;
49962;SDS011;36180;57.678;11.910;2023-03-23T11:52:53;16.00;;;4.38;;
49962;SDS011;36180;57.678;11.910;2023-03-23T11:57:53;22.42;;;4.32;;
49962;SDS011;36180;57.678;11.910;2023-03-23T12:00:23;12.40;;;4.20;;
49962;SDS011;36180;57.678;11.910;2023-03-23T12:05:53;18.33;;;3.88;;
49962;SDS011;36180;57.678;11.910;2023-03-23T12:08:30;15.30;;;4.07;;
49962;SDS011;36180;57.678;11.910;2023-03-23T12:11:11;15.75;;;4.40;;
49962;SDS011;36180;57.678;11.910;2023-03-23T12:13:55;15.45;;;4.05;;
49962;SDS011;36180;57.678;11.910;2023-03-23T12:16:32;18.25;;;3.53;;
49962;SDS011;36180;57.678;11.910;2023-03-23T12:19:08;11.88;;;3.47;;
49962;SDS011;36180;57.678;11.910;2023-03-23T12:21:41;13.55;;;3.90;;
49962;SDS011;36180;57.678;11.910;2023-03-23T12:24:18;18.15;;;3.72;;
49962;SDS011;36180;57.678;11.910;2023-03-23T12:26:55;11.55;;;3.08;;
49962;SDS011;36180;57.678;11.910;2023-03-23T12:29:27;15.63;;;3.17;;
49962;SDS011;36180;57.678;11.910;2023-03-23T12:35:05;13.63;;;3.30;;
49962;SDS011;36180;57.678;11.910;2023-03-23T12:37:44;12.32;;;3.25;;
49962;SDS011;36180;57.678;11.910;2023-03-23T12:40:21;15.30;;;3.67;;
49962;SDS011;36180;57.678;11.910;2023-03-23T12:43:04;9.30;;;3.47;;
49962;SDS011;36180;57.678;11.910;2023-03-23T12:48:23;12.85;;;3.72;;
49962;SDS011;36180;57.678;11.910;2023-03-23T12:51:02;23.27;;;4.50;;
49962;SDS011;36180;57.678;11.910;2023-03-23T12:53:36;15.18;;;4.00;;
49962;SDS011;36180;57.678;11.910;2023-03-23T12:56:06;16.88;;;4.18;;
49962;SDS011;36180;57.678;11.910;2023-03-23T12:58:40;18.88;;;4.40;;
49962;SDS011;36180;57.678;11.910;2023-03-23T13:01:12;13.50;;;3.75;;
49962;SDS011;36180;57.678;11.910;2023-03-23T13:03:48;15.77;;;4.75;;
49962;SDS011;36180;57.678;11.910;2023-03-23T13:06:19;17.90;;;5.10;;
49962;SDS011;36180;57.678;11.910;2023-03-23T13:08:52;15.70;;;4.68;;
49962;SDS011;36180;57.678;11.910;2023-03-23T13:11:24;12.25;;;3.83;;
49962;SDS011;36180;57.678;11.910;2023-03-23T13:13:54;18.20;;;4.85;;
49962;SDS011;36180;57.678;11.910;2023-03-23T13:16:26;17.15;;;4.15;;
49962;SDS011;36180;57.678;11.910;2023-03-23T13:19:02;24.35;;;4.25;;
49962;SDS011;36180;57.678;11.910;2023-03-23T13:21:37;28.73;;;4.68;;
49962;SDS011;36180;57.678;11.910;2023-03-23T13:24:10;22.40;;;4.60;;
49962;SDS011;36180;57.678;11.910;2023-03-23T13:26:41;19.63;;;4.32;;
49962;SDS011;36180;57.678;11.910;2023-03-23T13:29:09;16.27;;;4.90;;
49962;SDS011;36180;57.678;11.910;2023-03-23T13:31:39;23.15;;;4.97;;
49962;SDS011;36180;57.678;11.910;2023-03-23T13:34:12;16.13;;;4.20;;
49962;SDS011;36180;57.678;11.910;2023-03-23T13:36:43;23.25;;;4.28;;
49962;SDS011;36180;57.678;11.910;2023-03-23T13:39:17;19.95;;;3.75;;
49962;SDS011;36180;57.678;11.910;2023-03-23T13:41:46;15.43;;;3.53;;
49962;SDS011;36180;57.678;11.910;2023-03-23T13:44:16;18.73;;;3.42;;
49962;SDS011;36180;57.678;11.910;2023-03-23T13:46:55;20.70;;;4.10;;
49962;SDS011;36180;57.678;11.910;2023-03-23T13:49:24;23.25;;;4.05;;
49962;SDS011;36180;57.678;11.910;2023-03-23T13:52:00;23.50;;;4.25;;
49962;SDS011;36180;57.678;11.910;2023-03-23T13:54:39;15.40;;;4.07;;
49962;SDS011;36180;57.678;11.910;2023-03-23T13:57:23;17.13;;;3.55;;
49962;SDS011;36180;57.678;11.910;2023-03-23T14:00:10;13.52;;;3.25;;
49962;SDS011;36180;57.678;11.910;2023-03-23T14:02:50;21.80;;;3.88;;
49962;SDS011;36180;57.678;11.910;2023-03-23T14:08:11;24.20;;;4.68;;
49962;SDS011;36180;57.678;11.910;2023-03-23T14:10:40;20.85;;;3.88;;
49962;SDS011;36180;57.678;11.910;2023-03-23T14:13:13;23.70;;;3.97;;
49962;SDS011;36180;57.678;11.910;2023-03-23T14:15:44;15.35;;;3.85;;
49962;SDS011;36180;57.678;11.910;2023-03-23T14:18:21;17.85;;;3.65;;
49962;SDS011;36180;57.678;11.910;2023-03-23T14:20:50;25.27;;;3.70;;
49962;SDS011;36180;57.678;11.910;2023-03-23T14:23:18;17.02;;;3.85;;
49962;SDS011;36180;57.678;11.910;2023-03-23T14:25:53;22.15;;;4.60;;
49962;SDS011;36180;57.678;11.910;2023-03-23T14:28:23;19.95;;;3.28;;
49962;SDS011;36180;57.678;11.910;2023-03-23T14:30:52;26.80;;;3.78;;
49962;SDS011;36180;57.678;11.910;2023-03-23T14:33:22;20.42;;;3.50;;
49962;SDS011;36180;57.678;11.910;2023-03-23T14:35:53;25.00;;;3.83;;
49962;SDS011;36180;57.678;11.910;2023-03-23T14:38:23;24.50;;;3.75;;
49962;SDS011;36180;57.678;11.910;2023-03-23T14:40:53;22.23;;;3.75;;
49962;SDS011;36180;57.678;11.910;2023-03-23T14:43:21;23.38;;;4.05;;
49962;SDS011;36180;57.678;11.910;2023-03-23T14:45:50;25.05;;;3.85;;
49962;SDS011;36180;57.678;11.910;2023-03-23T14:48:18;22.42;;;3.78;;
49962;SDS011;36180;57.678;11.910;2023-03-23T14:50:48;22.02;;;3.90;;
49962;SDS011;36180;57.678;11.910;2023-03-23T14:53:21;21.80;;;3.55;;
49962;SDS011;36180;57.678;11.910;2023-03-23T14:55:49;21.45;;;4.03;;
49962;SDS011;36180;57.678;11.910;2023-03-23T14:58:19;23.02;;;3.70;;
49962;SDS011;36180;57.678;11.910;2023-03-23T15:00:49;22.65;;;3.47;;
49962;SDS011;36180;57.678;11.910;2023-03-23T15:16:19;24.60;;;3.67;;
49962;SDS011;36180;57.678;11.910;2023-03-23T15:18:49;23.95;;;4.32;;
49962;SDS011;36180;57.678;11.910;2023-03-23T15:21:19;26.00;;;4.07;;
49962;SDS011;36180;57.678;11.910;2023-03-23T15:23:49;21.30;;;4.35;;
49962;SDS011;36180;57.678;11.910;2023-03-23T15:26:24;25.77;;;3.85;;